Time;durP1;ratioP1;P1;durP2;ratioP2;P2;SDS_P1;SDS_P2;PMS_P1;PMS_P2;Temp;Humidity;BMP_temperature;BMP_pressure;BME280_temperature;BME280_humidity;BME280_pressure;Samples;Min_cycle;Max_cycle;Signal;HPM_P1;HPM_P2
2023/06/14 01:45:15;;;;;;;3.47;2.38;;;13.60;99.90;;;;;;5088571;22;20087;31
2023/06/14 01:47:41;;;;;;;0.35;0.35;;;13.70;99.90;;;;;;4875314;29;20072;-62
2023/06/14 01:50:07;;;;;;;0.30;0.30;;;13.60;99.90;;;;;;4877817;29;20049;-60
2023/06/14 01:52:33;;;;;;;0.30;0.30;;;13.50;99.90;;;;;;4880603;29;20056;-60
2023/06/14 01:55:01;;;;;;;0.22;0.22;;;13.70;99.90;;;;;;4880590;29;20048;-61
2023/06/14 01:57:28;;;;;;;0.20;0.20;;;13.80;99.90;;;;;;4880445;29;20053;-60
2023/06/14 01:59:53;;;;;;;;;;;13.60;99.90;;;;;;4880743;29;20095;-60
2023/06/14 02:02:19;;;;;;;0.38;0.38;;;13.50;99.90;;;;;;4880533;29;19963;-59
2023/06/14 02:04:47;;;;;;;0.28;0.28;;;13.50;99.90;;;;;;4880485;29;20053;-60
2023/06/14 02:07:13;;;;;;;0.40;0.40;;;13.90;99.90;;;;;;4880441;29;20478;-61
2023/06/14 02:09:39;;;;;;;;;;;13.70;99.90;;;;;;4880971;29;20057;-59
2023/06/14 02:12:05;;;;;;;0.60;0.60;;;13.70;99.90;;;;;;4880346;29;19991;-59
2023/06/14 02:14:31;;;;;;;0.30;0.30;;;13.80;99.90;;;;;;4880410;29;20465;-60
2023/06/14 02:16:56;;;;;;;0.20;0.20;;;13.60;99.90;;;;;;4880282;29;20045;-60
2023/06/14 02:19:22;;;;;;;;;;;13.40;99.90;;;;;;4880527;29;20045;-60
2023/06/14 02:21:47;;;;;;;0.80;0.45;;;13.40;99.90;;;;;;4880156;29;19930;-60
2023/06/14 02:24:13;;;;;;;0.30;0.30;;;13.60;99.90;;;;;;4879931;29;20063;-60
2023/06/14 02:26:41;;;;;;;0.35;0.35;;;13.40;99.90;;;;;;4879851;29;20087;-60
2023/06/14 02:29:09;;;;;;;0.20;0.20;;;13.20;99.90;;;;;;4880047;29;20071;-60
2023/06/14 02:31:36;;;;;;;0.30;0.30;;;13.30;99.90;;;;;;4879978;29;20115;-60
2023/06/14 02:34:02;;;;;;;0.68;0.68;;;12.10;99.90;;;;;;4879924;29;20690;-60
2023/06/14 02:36:30;;;;;;;0.47;0.47;;;13.40;99.90;;;;;;4879719;29;20478;-60
2023/06/14 02:38:57;;;;;;;0.20;0.20;;;13.30;99.90;;;;;;4879779;29;20160;-60
2023/06/14 02:41:26;;;;;;;0.30;0.30;;;13.00;99.90;;;;;;4879560;29;20125;-60
2023/06/14 02:43:53;;;;;;;0.20;0.20;;;13.40;99.90;;;;;;4879847;29;20104;-59
2023/06/14 02:46:18;;;;;;;0.50;0.50;;;13.10;99.90;;;;;;4889949;29;20060;-60
2023/06/14 02:48:45;;;;;;;0.50;0.50;;;13.30;99.90;;;;;;4898176;29;20497;-60
2023/06/14 02:51:10;;;;;;;0.38;0.38;;;13.20;99.90;;;;;;4898166;29;20055;-60
2023/06/14 02:53:36;;;;;;;0.20;0.20;;;13.10;99.90;;;;;;4898158;29;20048;-60
2023/06/14 02:56:03;;;;;;;0.30;0.30;;;13.10;99.90;;;;;;4898006;29;20416;-60
2023/06/14 02:58:30;;;;;;;0.20;0.20;;;13.40;99.90;;;;;;4898115;29;20048;-60
2023/06/14 03:00:55;;;;;;;0.40;0.40;;;13.00;99.90;;;;;;4897895;29;20049;-60
2023/06/14 03:03:24;;;;;;;0.45;0.38;;;13.50;99.90;;;;;;4897978;29;20108;-60
2023/06/14 03:05:51;;;;;;;0.20;0.20;;;12.90;99.90;;;;;;4897891;29;20478;-60
2023/06/14 03:08:19;;;;;;;0.22;0.22;;;13.10;99.90;;;;;;4897747;29;20041;-60
2023/06/14 03:10:48;;;;;;;0.20;0.20;;;13.00;99.90;;;;;;4897697;29;20061;-60
2023/06/14 03:13:15;;;;;;;0.20;0.20;;;12.90;99.90;;;;;;4897903;29;20405;-60
2023/06/14 03:15:42;;;;;;;0.30;0.30;;;13.00;99.90;;;;;;4897920;29;20052;-60
2023/06/14 03:18:11;;;;;;;0.20;0.20;;;12.70;99.90;;;;;;4881148;29;20088;-60
2023/06/14 03:20:38;;;;;;;0.20;0.20;;;12.90;99.90;;;;;;4897596;29;20052;-60
2023/06/14 03:23:05;;;;;;;0.40;0.40;;;13.00;99.90;;;;;;4897502;29;20119;-60
2023/06/14 03:25:34;;;;;;;0.30;0.30;;;13.20;99.90;;;;;;4897403;29;20060;-59
2023/06/14 03:28:00;;;;;;;0.30;0.30;;;13.20;99.90;;;;;;4897574;29;20478;-60
2023/06/14 03:30:25;;;;;;;0.43;0.43;;;13.00;99.90;;;;;;4897450;29;20133;-60
2023/06/14 03:32:52;;;;;;;0.47;0.47;;;12.90;99.90;;;;;;4897634;29;20056;-59
2023/06/14 03:35:19;;;;;;;0.40;0.40;;;13.00;99.90;;;;;;4897366;29;20052;-59
2023/06/14 03:37:45;;;;;;;0.57;0.32;;;13.30;99.90;;;;;;4897241;29;20052;-60
2023/06/14 03:40:16;;;;;;;1.00;1.00;;;13.10;99.90;;;;;;4897435;29;20127;-59
2023/06/14 03:42:41;;;;;;;0.47;0.47;;;12.90;99.90;;;;;;4897393;29;20077;-60
2023/06/14 03:45:07;;;;;;;0.30;0.30;;;12.90;99.90;;;;;;4897150;29;20044;-59
2023/06/14 03:47:34;;;;;;;;;;;13.10;99.90;;;;;;4897109;29;20060;-60
2023/06/14 03:50:00;;;;;;;0.33;0.33;;;12.90;99.90;;;;;;4897083;29;19997;-60
2023/06/14 03:52:26;;;;;;;0.25;0.25;;;13.40;99.90;;;;;;4896972;29;20642;-60
2023/06/14 03:54:52;;;;;;;4.55;1.15;;;13.20;99.90;;;;;;4897255;29;20123;-60
2023/06/14 03:57:19;;;;;;;1.55;0.35;;;13.20;99.90;;;;;;4897280;29;20189;-60
2023/06/14 03:59:46;;;;;;;0.43;0.30;;;13.00;99.90;;;;;;4897014;29;20056;-60
2023/06/14 04:02:15;;;;;;;0.30;0.30;;;13.20;99.90;;;;;;4896955;29;20135;-60
2023/06/14 04:04:44;;;;;;;0.60;0.60;;;13.20;99.90;;;;;;4896770;29;20060;-60
2023/06/14 04:07:13;;;;;;;0.30;0.30;;;13.50;99.90;;;;;;4897204;29;20397;-59
2023/06/14 04:09:39;;;;;;;0.45;0.45;;;13.10;99.90;;;;;;4896928;29;20412;-60
2023/06/14 04:12:06;;;;;;;0.20;0.20;;;13.30;99.90;;;;;;4896830;29;20056;-60
2023/06/14 04:14:34;;;;;;;1.17;0.50;;;13.50;99.90;;;;;;4896339;29;20052;-59
2023/06/14 04:17:00;;;;;;;0.90;0.90;;;13.10;99.90;;;;;;4896698;29;20049;-59
2023/06/14 04:19:26;;;;;;;;;;;13.30;99.90;;;;;;4897003;29;20055;-59
2023/06/14 04:21:52;;;;;;;0.45;0.45;;;13.40;99.90;;;;;;4896814;29;20296;-59
2023/06/14 04:24:18;;;;;;;0.25;0.25;;;13.30;99.90;;;;;;4896747;29;20041;-60
2023/06/14 04:26:44;;;;;;;0.35;0.35;;;13.40;99.90;;;;;;4896657;29;20051;-60
2023/06/14 04:29:14;;;;;;;0.40;0.40;;;13.90;99.90;;;;;;4896604;29;20052;-60
2023/06/14 04:31:40;;;;;;;0.60;0.60;;;13.60;99.90;;;;;;4896660;29;20053;-59
2023/06/14 04:34:06;;;;;;;0.30;0.30;;;13.90;99.90;;;;;;4896750;29;20127;-60
2023/06/14 04:36:34;;;;;;;0.30;0.30;;;13.70;99.90;;;;;;4896796;29;20702;-60
2023/06/14 04:39:03;;;;;;;1.05;0.70;;;13.70;99.90;;;;;;4896572;29;20553;-60
2023/06/14 04:41:32;;;;;;;0.32;0.32;;;14.20;99.90;;;;;;4896546;29;20075;-60
2023/06/14 04:44:02;;;;;;;0.28;0.28;;;14.20;99.90;;;;;;4896372;29;20045;-59
2023/06/14 04:46:28;;;;;;;0.50;0.50;;;14.10;99.90;;;;;;4896076;29;20059;-60
2023/06/14 04:48:54;;;;;;;0.55;0.55;;;14.20;99.90;;;;;;4896638;29;20129;-59
2023/06/14 04:51:22;;;;;;;0.20;0.20;;;14.40;99.90;;;;;;4879780;29;20132;-60
2023/06/14 04:53:49;;;;;;;0.30;0.30;;;14.30;99.90;;;;;;4896452;29;20498;-59
2023/06/14 04:56:16;;;;;;;0.43;0.43;;;14.90;99.90;;;;;;4896391;29;20057;-60
2023/06/14 04:58:43;;;;;;;0.50;0.50;;;14.70;99.90;;;;;;4896328;29;20056;-60
2023/06/14 05:01:09;;;;;;;0.47;0.47;;;14.60;99.90;;;;;;4896114;29;20088;-60
2023/06/14 05:03:35;;;;;;;0.20;0.20;;;15.10;99.90;;;;;;4896470;29;20502;-60
2023/06/14 05:06:00;;;;;;;;;;;14.80;99.90;;;;;;4896808;29;20108;-59
2023/06/14 05:08:26;;;;;;;0.43;0.43;;;15.10;99.90;;;;;;4896175;29;19934;-60
2023/06/14 05:10:52;;;;;;;1.35;0.57;;;15.30;99.90;;;;;;4896225;29;20056;-59
2023/06/14 05:13:18;;;;;;;0.63;0.40;;;15.20;99.90;;;;;;4894720;29;20052;-61
2023/06/14 05:15:44;;;;;;;0.47;0.47;;;15.60;99.90;;;;;;4896297;29;20208;-60
2023/06/14 05:18:10;;;;;;;0.40;0.40;;;15.60;99.90;;;;;;4895876;29;20139;-60
2023/06/14 05:20:37;;;;;;;;;;;15.50;99.90;;;;;;4879785;29;20056;-60
2023/06/14 05:23:02;;;;;;;0.57;0.57;;;15.60;99.90;;;;;;4895636;29;19978;-60
2023/06/14 05:25:28;;;;;;;;;;;15.70;99.90;;;;;;4896907;29;20056;-60
2023/06/14 05:27:54;;;;;;;0.30;0.30;;;15.90;99.90;;;;;;4899030;29;19927;-60
2023/06/14 05:30:20;;;;;;;;;;;16.00;99.90;;;;;;4882135;29;20523;-61
2023/06/14 05:32:45;;;;;;;0.30;0.30;;;15.80;99.90;;;;;;4899335;29;19927;-61
2023/06/14 05:35:11;;;;;;;;;;;16.10;99.90;;;;;;4899453;29;20049;-60
2023/06/14 05:37:37;;;;;;;0.50;0.50;;;16.10;99.90;;;;;;4899095;29;19923;-60
2023/06/14 05:40:06;;;;;;;;;;;16.20;99.90;;;;;;4899233;29;20163;-60
2023/06/14 05:42:32;;;;;;;0.65;0.65;;;16.60;99.90;;;;;;4898785;29;19930;-59
2023/06/14 05:44:58;;;;;;;0.32;0.30;;;16.50;99.90;;;;;;4897859;29;20044;-62
2023/06/14 05:47:24;;;;;;;;;;;16.40;99.90;;;;;;4897662;29;20053;-60
2023/06/14 05:49:49;;;;;;;0.30;0.30;;;16.60;99.90;;;;;;4897819;29;19946;-60
2023/06/14 05:52:15;;;;;;;;;;;16.40;99.90;;;;;;4898622;29;20169;-60
2023/06/14 05:54:41;;;;;;;0.63;0.63;;;16.70;99.90;;;;;;4899204;29;19931;-60
2023/06/14 05:57:07;;;;;;;;;;;17.10;99.90;;;;;;4899633;29;20055;-60
2023/06/14 05:59:32;;;;;;;0.43;0.43;;;16.70;99.90;;;;;;4898999;29;19924;-60
2023/06/14 06:01:58;;;;;;;;;;;16.90;99.90;;;;;;4899656;29;20056;-60
2023/06/14 06:04:24;;;;;;;0.40;0.40;;;16.70;99.90;;;;;;4899354;29;20018;-61
2023/06/14 06:06:49;;;;;;;;;;;17.40;99.90;;;;;;4899432;29;20040;-61
2023/06/14 06:09:15;;;;;;;0.35;0.35;;;16.70;99.90;;;;;;4898876;29;20387;-60
2023/06/14 06:11:41;;;;;;;;;;;17.30;99.90;;;;;;4899426;29;20063;-63
2023/06/14 06:14:06;;;;;;;1.33;0.47;;;17.10;99.90;;;;;;4898804;29;19923;-61
2023/06/14 06:16:32;;;;;;;;;;;17.70;99.90;;;;;;4899257;29;20103;-61
2023/06/14 06:18:59;;;;;;;0.30;0.30;;;17.40;99.90;;;;;;4898849;29;19927;-61
2023/06/14 06:21:25;;;;;;;0.43;0.43;;;17.40;99.90;;;;;;4898897;29;20208;-60
2023/06/14 06:23:50;;;;;;;;;;;17.70;99.90;;;;;;4898979;29;20127;-62
2023/06/14 06:26:16;;;;;;;0.22;0.22;;;17.80;99.90;;;;;;4898748;29;19992;-60
2023/06/14 06:28:41;;;;;;;0.25;0.25;;;17.90;99.90;;;;;;4898546;29;20518;-62
2023/06/14 06:31:07;;;;;;;;;;;17.70;99.90;;;;;;4898888;29;20160;-60
2023/06/14 06:33:33;;;;;;;0.25;0.25;;;17.10;99.90;;;;;;4898225;29;19954;-60
2023/06/14 06:35:58;;;;;;;;;;;18.10;99.90;;;;;;4898327;29;20139;-61
2023/06/14 06:38:24;;;;;;;0.57;0.57;;;17.80;99.90;;;;;;4898263;29;20002;-61
2023/06/14 06:40:50;;;;;;;;;;;17.90;99.90;;;;;;4898860;29;20097;-62
2023/06/14 06:43:17;;;;;;;0.30;0.30;;;18.60;99.90;;;;;;4898269;29;20405;-61
2023/06/14 06:45:43;;;;;;;0.47;0.47;;;18.60;99.90;;;;;;4898235;29;20079;-60
2023/06/14 06:48:11;;;;;;;0.63;0.43;;;18.70;99.90;;;;;;4897722;29;20147;-61
2023/06/14 06:50:37;;;;;;;0.13;0.13;;;18.90;99.90;;;;;;4893895;29;20048;-61
2023/06/14 06:53:03;;;;;;;1.20;0.98;;;18.90;99.90;;;;;;4897415;29;20055;-61
2023/06/14 06:55:29;;;;;;;;;;;18.60;99.90;;;;;;4898010;29;20063;-61
2023/06/14 06:57:54;;;;;;;3.60;0.40;;;18.90;99.90;;;;;;4897244;29;19935;-60
2023/06/14 07:00:21;;;;;;;1.02;1.00;;;18.80;99.90;;;;;;4897619;29;20139;-61
2023/06/14 07:02:47;;;;;;;0.38;0.38;;;18.90;99.90;;;;;;4897304;29;20048;-61
2023/06/14 07:05:13;;;;;;;0.20;0.20;;;19.20;99.90;;;;;;4897101;29;20048;-60
2023/06/14 07:07:39;;;;;;;10.38;0.80;;;18.90;99.90;;;;;;4897276;29;20055;-61
2023/06/14 07:10:05;;;;;;;1.10;0.32;;;19.30;99.90;;;;;;4897392;29;20151;-61
2023/06/14 07:12:33;;;;;;;0.30;0.30;;;19.40;99.90;;;;;;4897015;29;20428;-61
2023/06/14 07:15:00;;;;;;;0.40;0.40;;;19.70;99.90;;;;;;4897771;29;20055;-60
2023/06/14 07:17:26;;;;;;;0.35;0.35;;;19.80;99.90;;;;;;4897103;29;20059;-60
2023/06/14 07:19:53;;;;;;;0.47;0.47;;;20.00;99.90;;;;;;4897278;29;20044;-59
2023/06/14 07:22:19;;;;;;;0.52;0.52;;;19.90;99.90;;;;;;4916304;29;20052;-60
2023/06/14 07:24:45;;;;;;;0.60;0.60;;;19.70;99.90;;;;;;4916085;29;20055;-60
2023/06/14 07:27:13;;;;;;;0.30;0.30;;;20.10;99.90;;;;;;4916059;29;20054;-61
2023/06/14 07:29:38;;;;;;;0.30;0.30;;;19.90;99.90;;;;;;4916288;29;20424;-61
2023/06/14 07:32:05;;;;;;;0.68;0.68;;;19.70;99.90;;;;;;4916121;29;20056;-63
2023/06/14 07:34:30;;;;;;;0.30;0.30;;;20.30;99.90;;;;;;4916056;29;20076;-61
2023/06/14 07:36:57;;;;;;;0.20;0.20;;;20.20;99.90;;;;;;4916020;29;20048;-61
2023/06/14 07:39:23;;;;;;;0.63;0.30;;;20.60;99.90;;;;;;4916017;29;20082;-62
2023/06/14 07:41:49;;;;;;;0.10;0.10;;;20.30;99.90;;;;;;4915773;29;20481;-61
2023/06/14 07:44:16;;;;;;;0.75;0.63;;;20.20;99.90;;;;;;4916004;29;20059;-61
2023/06/14 07:46:41;;;;;;;0.30;0.30;;;20.50;99.90;;;;;;4915603;29;20082;-60
2023/06/14 07:49:07;;;;;;;1.08;0.45;;;21.10;99.90;;;;;;4915166;29;20056;-61
2023/06/14 07:51:33;;;;;;;0.15;0.13;;;21.00;99.90;;;;;;4898751;29;20213;-63
2023/06/14 07:54:00;;;;;;;0.60;0.60;;;21.20;99.90;;;;;;4915686;29;20505;-62
2023/06/14 07:56:26;;;;;;;0.35;0.35;;;21.20;99.90;;;;;;4915556;29;20098;-63
2023/06/14 07:58:52;;;;;;;0.30;0.30;;;21.10;99.90;;;;;;4915784;29;20436;-62
2023/06/14 08:01:19;;;;;;;0.57;0.43;;;21.10;99.90;;;;;;4915659;29;20058;-61
2023/06/14 08:03:45;;;;;;;0.45;0.45;;;21.30;99.90;;;;;;4915536;29;20055;-61
2023/06/14 08:06:11;;;;;;;0.40;0.40;;;21.30;99.90;;;;;;4915590;29;20056;-62
2023/06/14 08:08:37;;;;;;;0.20;0.20;;;21.50;99.90;;;;;;4915420;29;20044;-62
2023/06/14 08:11:03;;;;;;;0.20;0.20;;;21.60;99.90;;;;;;4915272;29;20059;-62
2023/06/14 08:13:28;;;;;;;1.55;0.55;;;21.60;99.90;;;;;;4899462;29;20060;-63
2023/06/14 08:15:57;;;;;;;0.30;0.30;;;21.40;99.90;;;;;;4897356;29;20137;-61
2023/06/14 08:18:22;;;;;;;0.30;0.28;;;21.70;99.90;;;;;;4894099;29;20080;-61
2023/06/14 08:20:48;;;;;;;0.38;0.38;;;21.60;99.90;;;;;;4895936;29;20106;-61
2023/06/14 08:23:14;;;;;;;0.35;0.35;;;22.00;99.90;;;;;;4895609;29;20057;-62
2023/06/14 08:25:40;;;;;;;2.38;1.73;;;22.10;99.90;;;;;;4895636;29;20092;-61
2023/06/14 08:28:06;;;;;;;0.30;0.30;;;22.20;99.90;;;;;;4895790;29;20143;-61
2023/06/14 08:30:31;;;;;;;0.20;0.20;;;22.00;99.90;;;;;;4895519;29;20523;-62
2023/06/14 08:32:57;;;;;;;0.30;0.20;;;21.90;99.90;;;;;;4896002;29;20052;-61
2023/06/14 08:35:23;;;;;;;0.10;0.10;;;21.80;99.90;;;;;;4895880;29;20048;-61
2023/06/14 08:37:49;;;;;;;0.57;0.22;;;21.90;99.90;;;;;;4896100;29;20045;-62
2023/06/14 08:40:21;;;;;;;0.43;0.43;;;22.10;99.90;;;;;;4895708;29;20063;-62
2023/06/14 08:42:54;;;;;;;0.45;0.45;;;21.90;99.90;;;;;;4895797;29;20060;-62
2023/06/14 08:45:24;;;;;;;0.50;0.50;;;22.20;99.90;;;;;;4894664;29;20534;-61
2023/06/14 08:47:57;;;;;;;0.65;0.47;;;22.30;99.90;;;;;;4896136;29;20056;-61
2023/06/14 08:50:29;;;;;;;0.75;0.75;;;22.30;99.90;;;;;;4896353;29;20056;-62
2023/06/14 08:53:00;;;;;;;0.93;0.35;;;22.50;99.90;;;;;;4896568;29;20130;-63
2023/06/14 08:55:27;;;;;;;0.47;0.47;;;22.20;99.90;;;;;;4896542;29;20418;-61
2023/06/14 08:57:54;;;;;;;0.25;0.25;;;22.50;99.90;;;;;;4896491;29;20045;-61
2023/06/14 09:00:22;;;;;;;0.30;0.30;;;22.80;99.90;;;;;;4898833;29;20102;-62
2023/06/14 09:02:48;;;;;;;0.55;0.50;;;23.00;99.90;;;;;;4900126;29;20116;-62
2023/06/14 09:05:13;;;;;;;0.32;0.32;;;22.70;99.90;;;;;;4900100;29;20362;-62
2023/06/14 09:07:41;;;;;;;0.35;0.35;;;22.60;99.90;;;;;;4900134;29;20070;-60
2023/06/14 09:10:10;;;;;;;0.20;0.20;;;22.70;99.90;;;;;;4899744;29;20115;-62
2023/06/14 09:12:36;;;;;;;0.17;0.17;;;22.70;99.90;;;;;;4900013;29;20048;-60
2023/06/14 09:15:08;;;;;;;0.00;0.00;;;22.90;99.90;;;;;;4899795;29;20460;-61
2023/06/14 09:17:37;;;;;;;0.17;0.17;;;23.20;99.90;;;;;;4899908;29;20059;-60
2023/06/14 09:20:10;;;;;;;0.35;0.32;;;23.10;99.90;;;;;;4899971;29;20060;-60
2023/06/14 09:22:41;;;;;;;0.17;0.17;;;25.40;99.90;;;;;;4899909;29;20048;-61
2023/06/14 09:25:07;;;;;;;0.75;0.75;;;23.40;99.90;;;;;;4899821;29;20409;-61
2023/06/14 09:27:35;;;;;;;0.32;0.32;;;23.30;99.90;;;;;;4899596;29;20686;-60
2023/06/14 09:30:05;;;;;;;0.30;0.25;;;23.40;99.90;;;;;;4899647;29;20188;-61
2023/06/14 09:32:31;;;;;;;0.13;0.13;;;23.30;99.90;;;;;;4899869;29;20060;-62
2023/06/14 09:34:57;;;;;;;0.32;0.32;;;23.30;99.90;;;;;;4899772;29;20053;-61
2023/06/14 09:37:28;;;;;;;0.20;0.20;;;23.30;99.90;;;;;;4899705;29;20051;-62
2023/06/14 09:39:54;;;;;;;0.25;0.20;;;23.30;99.90;;;;;;4899489;29;20083;-61
2023/06/14 09:42:19;;;;;;;0.22;0.22;;;23.40;99.90;;;;;;4899855;29;20487;-61
2023/06/14 09:44:49;;;;;;;0.28;0.28;;;23.60;99.90;;;;;;4899444;29;20126;-61
2023/06/14 09:47:16;;;;;;;0.13;0.13;;;23.60;99.90;;;;;;4899368;29;20127;-61
2023/06/14 09:49:42;;;;;;;0.20;0.20;;;23.20;99.90;;;;;;4895877;29;20048;-61
2023/06/14 09:52:15;;;;;;;5.10;0.85;;;23.40;99.90;;;;;;4898107;29;20115;-60
2023/06/14 09:54:51;;;;;;;1.45;0.50;;;23.60;99.90;;;;;;4898163;29;20078;-61
2023/06/14 09:57:21;;;;;;;0.38;0.38;;;23.50;99.90;;;;;;4898373;29;20056;-61
2023/06/14 09:59:48;;;;;;;0.75;0.60;;;23.30;99.90;;;;;;4898563;29;20115;-60
2023/06/14 10:02:27;;;;;;;0.30;0.30;;;23.40;99.90;;;;;;4898989;29;20052;-61
2023/06/14 10:05:03;;;;;;;0.20;0.20;;;23.70;99.90;;;;;;4899182;29;20107;-60
2023/06/14 10:07:38;;;;;;;0.52;0.52;;;23.60;99.90;;;;;;4899015;29;20083;-61
2023/06/14 10:10:04;;;;;;;0.50;0.45;;;23.50;99.90;;;;;;4899262;29;20048;-61
2023/06/14 10:12:30;;;;;;;0.28;0.28;;;23.90;99.90;;;;;;4898278;29;20501;-62
2023/06/14 10:14:57;;;;;;;0.32;0.32;;;23.80;99.90;;;;;;4898998;29;20094;-61
2023/06/14 10:17:44;;;;;;;0.65;0.50;;;23.90;99.90;;;;;;4898991;29;20083;-61
2023/06/14 10:20:37;;;;;;;0.20;0.20;;;23.90;99.90;;;;;;4898776;29;20226;-60
2023/06/14 10:23:17;;;;;;;0.20;0.20;;;24.10;99.90;;;;;;4899018;29;20060;-61
2023/06/14 10:25:43;;;;;;;3.83;0.45;;;24.40;99.90;;;;;;4898983;29;20048;-61
2023/06/14 10:28:27;;;;;;;0.20;0.20;;;23.90;99.90;;;;;;4898859;29;20047;-59
2023/06/14 10:31:09;;;;;;;0.75;0.35;;;24.40;99.90;;;;;;4898718;29;20053;-60
2023/06/14 10:33:38;;;;;;;0.10;0.10;;;24.20;99.90;;;;;;4898134;29;20143;-60
2023/06/14 10:36:31;;;;;;;0.10;0.10;;;24.00;99.90;;;;;;4898113;29;20540;-61
2023/06/14 10:38:57;;;;;;;0.10;0.10;;;24.20;99.90;;;;;;4897954;29;20044;-60
2023/06/14 10:41:27;;;;;;;1.45;1.35;;;24.40;99.90;;;;;;4898014;29;20056;-60
2023/06/14 10:44:10;;;;;;;0.13;0.13;;;24.20;99.90;;;;;;4897550;29;20058;-62
2023/06/14 10:46:36;;;;;;;0.30;0.30;;;24.50;99.90;;;;;;4897630;29;20111;-60
2023/06/14 10:49:03;;;;;;;0.20;0.20;;;24.50;99.90;;;;;;4897793;29;20057;-59
2023/06/14 10:51:45;;;;;;;0.20;0.20;;;24.30;99.90;;;;;;4897689;29;20052;-59
2023/06/14 10:54:15;;;;;;;0.13;0.13;;;24.50;99.90;;;;;;4897939;29;20067;-60
2023/06/14 10:56:48;;;;;;;0.63;0.35;;;24.50;99.90;;;;;;4897763;29;20112;-62
2023/06/14 10:59:15;;;;;;;0.32;0.32;;;24.40;99.90;;;;;;4897142;29;20052;-61
2023/06/14 11:02:18;;;;;;;0.10;0.10;;;24.20;99.90;;;;;;4897562;29;20063;-60
2023/06/14 11:04:47;;;;;;;0.35;0.35;;;24.70;99.90;;;;;;4897574;29;20063;-59
2023/06/14 11:07:32;;;;;;;0.17;0.17;;;24.60;99.90;;;;;;4897387;29;20136;-59
2023/06/14 11:10:24;;;;;;;0.20;0.20;;;24.20;99.90;;;;;;4912027;29;20404;-59
2023/06/14 11:12:54;;;;;;;0.22;0.22;;;24.60;99.90;;;;;;4897660;29;20119;-60
2023/06/14 11:15:20;;;;;;;0.50;0.50;;;24.20;99.90;;;;;;4895924;29;20066;-60
2023/06/14 11:17:56;;;;;;;0.30;0.30;;;24.10;99.90;;;;;;4897358;29;20044;-60
2023/06/14 11:20:25;;;;;;;0.38;0.38;;;24.00;99.90;;;;;;4897126;29;20100;-61
2023/06/14 11:22:52;;;;;;;0.50;0.50;;;24.00;99.90;;;;;;4897070;29;20509;-60
2023/06/14 11:25:18;;;;;;;0.32;0.32;;;24.10;99.90;;;;;;4897155;29;20545;-61
2023/06/14 11:27:44;;;;;;;0.38;0.38;;;24.10;99.90;;;;;;4897113;29;20040;-61
2023/06/14 11:30:11;;;;;;;0.88;0.43;;;24.20;99.90;;;;;;4896759;29;20051;-60
2023/06/14 11:32:37;;;;;;;0.30;0.30;;;24.80;99.90;;;;;;4897059;29;20095;-61
2023/06/14 11:35:07;;;;;;;0.63;0.38;;;24.30;99.90;;;;;;4896858;29;20048;-61
2023/06/14 11:37:33;;;;;;;0.52;0.40;;;24.50;99.90;;;;;;4896813;29;20059;-61
2023/06/14 11:40:00;;;;;;;0.10;0.10;;;24.60;99.90;;;;;;4896897;29;20048;-61
2023/06/14 11:42:29;;;;;;;0.35;0.35;;;24.30;99.90;;;;;;4896942;29;20116;-60
2023/06/14 11:44:55;;;;;;;1.85;1.15;;;24.40;99.90;;;;;;4896417;29;20127;-61
2023/06/14 11:47:24;;;;;;;0.13;0.13;;;24.50;99.90;;;;;;4896729;29;20468;-59
2023/06/14 11:49:50;;;;;;;0.45;0.45;;;24.60;99.90;;;;;;4896592;29;20048;-61
2023/06/14 11:52:18;;;;;;;0.10;0.10;;;24.50;99.90;;;;;;4896587;29;20120;-59
2023/06/14 11:54:44;;;;;;;0.38;0.28;;;24.50;99.90;;;;;;4896698;29;20040;-60
2023/06/14 11:57:10;;;;;;;0.80;0.40;;;24.60;99.90;;;;;;4896617;29;20504;-60
2023/06/14 11:59:40;;;;;;;0.77;0.40;;;24.90;99.90;;;;;;4896167;29;20053;-60
2023/06/14 12:02:07;;;;;;;0.40;0.40;;;24.60;99.90;;;;;;4896558;29;20463;-61
2023/06/14 12:04:33;;;;;;;0.38;0.28;;;23.80;99.90;;;;;;4896159;29;20090;-60
2023/06/14 12:07:15;;;;;;;0.30;0.30;;;24.40;99.90;;;;;;4896731;29;20067;-61
2023/06/14 12:10:02;;;;;;;0.43;0.43;;;24.00;99.90;;;;;;4896483;29;20505;-59
2023/06/14 12:12:29;;;;;;;0.13;0.13;;;24.20;99.90;;;;;;4889689;29;20474;-60
2023/06/14 12:14:56;;;;;;;0.88;0.25;;;24.00;99.90;;;;;;4895531;29;20116;-61
2023/06/14 12:17:22;;;;;;;0.35;0.20;;;24.10;99.90;;;;;;4894906;29;20048;-59
2023/06/14 12:19:49;;;;;;;0.43;0.43;;;24.30;99.90;;;;;;4880436;29;20636;-60
2023/06/14 12:22:16;;;;;;;0.63;0.40;;;24.60;99.90;;;;;;4896666;29;20056;-59
2023/06/14 12:24:46;;;;;;;0.75;0.47;;;24.60;99.90;;;;;;4896473;29;20052;-59
2023/06/14 12:27:15;;;;;;;0.28;0.28;;;24.70;99.90;;;;;;4896396;29;20079;-60
2023/06/14 12:29:43;;;;;;;4.07;0.40;;;24.60;99.90;;;;;;4896161;29;20489;-60
2023/06/14 12:32:09;;;;;;;0.32;0.30;;;24.80;99.90;;;;;;4896458;29;20530;-60
2023/06/14 12:34:35;;;;;;;0.63;0.55;;;24.70;99.90;;;;;;4896012;29;20052;-60
2023/06/14 12:37:03;;;;;;;0.40;0.40;;;24.30;99.90;;;;;;4896471;29;20092;-60
2023/06/14 12:39:29;;;;;;;0.52;0.32;;;23.90;99.90;;;;;;4879732;29;20134;-60
2023/06/14 12:41:55;;;;;;;0.10;0.10;;;24.40;99.90;;;;;;4896149;29;20064;-60
2023/06/14 12:44:21;;;;;;;0.10;0.10;;;24.20;99.90;;;;;;4896351;29;20052;-60
2023/06/14 12:46:46;;;;;;;0.35;0.32;;;24.50;99.90;;;;;;4895784;29;20065;-61
2023/06/14 12:49:13;;;;;;;0.20;0.15;;;24.40;99.90;;;;;;4896374;29;20056;-59
2023/06/14 12:51:39;;;;;;;2.20;0.50;;;24.70;99.90;;;;;;4896063;29;20572;-60
2023/06/14 12:54:05;;;;;;;2.22;0.47;;;24.00;99.90;;;;;;4896180;29;20108;-59
2023/06/14 12:56:31;;;;;;;0.45;0.30;;;24.40;99.90;;;;;;4895996;29;20052;-60
2023/06/14 12:58:57;;;;;;;0.50;0.50;;;24.30;99.90;;;;;;4895982;29;20047;-60
2023/06/14 13:01:23;;;;;;;0.32;0.32;;;23.90;99.90;;;;;;4896249;29;20049;-60
2023/06/14 13:03:51;;;;;;;0.30;0.30;;;23.80;99.90;;;;;;4896174;29;20524;-60
2023/06/14 13:06:17;;;;;;;9.50;1.58;;;23.90;99.90;;;;;;4896118;29;20057;-61
2023/06/14 13:08:43;;;;;;;0.13;0.13;;;24.30;99.90;;;;;;4895931;29;20055;-60
2023/06/14 13:11:09;;;;;;;0.88;0.20;;;24.60;99.90;;;;;;4879313;29;20052;-60
2023/06/14 13:13:34;;;;;;;0.10;0.10;;;24.80;99.90;;;;;;4896161;29;20056;-59
2023/06/14 13:16:00;;;;;;;0.28;0.28;;;24.60;99.90;;;;;;4896083;29;20052;-59
2023/06/14 13:18:26;;;;;;;0.68;0.68;;;24.70;99.90;;;;;;4896037;29;20084;-60
2023/06/14 13:20:52;;;;;;;0.40;0.22;;;24.90;99.90;;;;;;4895969;29;20135;-60
2023/06/14 13:23:17;;;;;;;1.95;0.40;;;24.50;99.90;;;;;;4895996;29;20546;-60
2023/06/14 13:25:44;;;;;;;2.30;0.38;;;24.90;99.90;;;;;;4895817;29;20097;-60
2023/06/14 13:28:09;;;;;;;0.17;0.17;;;24.40;99.90;;;;;;4895745;29;20063;-60
2023/06/14 13:30:35;;;;;;;0.60;0.60;;;24.40;99.90;;;;;;4895950;29;20052;-60
2023/06/14 13:33:01;;;;;;;0.40;0.40;;;24.40;99.90;;;;;;4895863;29;20047;-60
2023/06/14 13:35:27;;;;;;;0.30;0.30;;;24.10;99.90;;;;;;4895884;29;20052;-61
2023/06/14 13:37:53;;;;;;;0.32;0.25;;;24.70;99.90;;;;;;4895867;29;20112;-61
2023/06/14 13:40:19;;;;;;;0.40;0.40;;;26.30;99.90;;;;;;4895801;29;20052;-61
2023/06/14 13:42:46;;;;;;;2.97;0.55;;;25.10;99.90;;;;;;4895952;29;20546;-61
2023/06/14 13:45:12;;;;;;;0.25;0.25;;;24.50;99.90;;;;;;4896053;29;20482;-60
2023/06/14 13:47:38;;;;;;;0.38;0.38;;;24.30;99.90;;;;;;4898108;29;20548;-61
2023/06/14 13:50:05;;;;;;;0.40;0.40;;;24.50;99.90;;;;;;4899427;29;20052;-61
2023/06/14 13:52:31;;;;;;;0.17;0.17;;;24.20;99.90;;;;;;4899354;29;20045;-60
2023/06/14 13:54:57;;;;;;;1.00;0.82;;;23.70;99.90;;;;;;4899251;29;20108;-61
2023/06/14 13:57:22;;;;;;;0.22;0.22;;;23.80;99.90;;;;;;4882407;29;20056;-60
2023/06/14 13:59:48;;;;;;;0.30;0.30;;;24.00;99.90;;;;;;4899474;29;20048;-61
2023/06/14 14:02:14;;;;;;;0.57;0.55;;;23.90;99.90;;;;;;4899264;29;20644;-61
2023/06/14 14:04:40;;;;;;;0.45;0.45;;;24.20;99.90;;;;;;4899201;29;20056;-61
2023/06/14 14:07:07;;;;;;;1.00;0.43;;;24.70;99.90;;;;;;4899001;29;20037;-62
2023/06/14 14:09:34;;;;;;;0.20;0.20;;;24.50;99.90;;;;;;4899097;29;20052;-61
2023/06/14 14:12:01;;;;;;;0.38;0.38;;;24.90;99.90;;;;;;4899294;29;20063;-60
2023/06/14 14:14:28;;;;;;;0.38;0.20;;;24.40;99.90;;;;;;4899411;29;20052;-60
2023/06/14 14:16:54;;;;;;;0.13;0.13;;;24.50;99.90;;;;;;4899213;29;20045;-60
2023/06/14 14:19:21;;;;;;;0.20;0.20;;;24.80;99.90;;;;;;4899019;29;20067;-59
2023/06/14 14:21:47;;;;;;;0.20;0.20;;;24.70;99.90;;;;;;4898893;29;20408;-60
2023/06/14 14:24:13;;;;;;;0.20;0.20;;;25.20;99.90;;;;;;4898748;29;20150;-59
2023/06/14 14:26:39;;;;;;;0.45;0.35;;;25.00;99.90;;;;;;4898966;29;20524;-60
2023/06/14 14:29:06;;;;;;;0.10;0.10;;;25.00;99.90;;;;;;4898905;29;20067;-60
2023/06/14 14:31:32;;;;;;;0.50;0.45;;;25.30;99.90;;;;;;4898840;29;20094;-60
2023/06/14 14:33:57;;;;;;;0.17;0.17;;;25.30;99.90;;;;;;4898754;29;20088;-60
2023/06/14 14:36:23;;;;;;;0.05;0.05;;;25.20;99.90;;;;;;4898615;29;20056;-61
2023/06/14 14:38:51;;;;;;;0.20;0.20;;;25.60;99.90;;;;;;4898438;29;20048;-60